sensor_id;sensor_type;location;lat;lon;timestamp;P1;durP1;ratioP1;P2;durP2;ratioP2
21270;SDS011;10795;50.796;3.860;2024-03-17T00:01:03;11.00;;;6.40;;
21270;SDS011;10795;50.796;3.860;2024-03-17T00:03:30;8.90;;;6.32;;
21270;SDS011;10795;50.796;3.860;2024-03-17T00:05:59;12.40;;;6.38;;
21270;SDS011;10795;50.796;3.860;2024-03-17T00:08:26;8.25;;;5.43;;
21270;SDS011;10795;50.796;3.860;2024-03-17T00:10:54;9.07;;;6.20;;
21270;SDS011;10795;50.796;3.860;2024-03-17T00:13:23;8.10;;;5.95;;
21270;SDS011;10795;50.796;3.860;2024-03-17T00:15:49;7.95;;;5.82;;
21270;SDS011;10795;50.796;3.860;2024-03-17T00:18:16;6.95;;;4.55;;
21270;SDS011;10795;50.796;3.860;2024-03-17T00:20:47;7.57;;;5.60;;
21270;SDS011;10795;50.796;3.860;2024-03-17T00:23:13;9.52;;;5.57;;
21270;SDS011;10795;50.796;3.860;2024-03-17T00:25:41;9.55;;;6.00;;
21270;SDS011;10795;50.796;3.860;2024-03-17T00:28:09;7.50;;;5.65;;
21270;SDS011;10795;50.796;3.860;2024-03-17T00:30:37;11.20;;;6.40;;
21270;SDS011;10795;50.796;3.860;2024-03-17T00:33:05;9.07;;;6.10;;
21270;SDS011;10795;50.796;3.860;2024-03-17T00:35:31;8.30;;;5.82;;
21270;SDS011;10795;50.796;3.860;2024-03-17T00:37:58;9.50;;;5.75;;
21270;SDS011;10795;50.796;3.860;2024-03-17T00:40:25;9.57;;;6.22;;
21270;SDS011;10795;50.796;3.860;2024-03-17T00:42:50;8.75;;;5.88;;
21270;SDS011;10795;50.796;3.860;2024-03-17T00:45:17;7.43;;;5.80;;
21270;SDS011;10795;50.796;3.860;2024-03-17T00:47:43;8.45;;;5.43;;
21270;SDS011;10795;50.796;3.860;2024-03-17T00:50:12;7.43;;;5.53;;
21270;SDS011;10795;50.796;3.860;2024-03-17T00:52:37;9.30;;;5.43;;
21270;SDS011;10795;50.796;3.860;2024-03-17T00:55:06;7.85;;;5.35;;
21270;SDS011;10795;50.796;3.860;2024-03-17T00:57:35;9.10;;;5.32;;
21270;SDS011;10795;50.796;3.860;2024-03-17T01:00:02;7.78;;;5.70;;
21270;SDS011;10795;50.796;3.860;2024-03-17T01:02:34;7.55;;;4.80;;
21270;SDS011;10795;50.796;3.860;2024-03-17T01:04:59;8.15;;;5.80;;
21270;SDS011;10795;50.796;3.860;2024-03-17T01:07:31;8.10;;;5.60;;
21270;SDS011;10795;50.796;3.860;2024-03-17T01:09:57;7.18;;;5.00;;
21270;SDS011;10795;50.796;3.860;2024-03-17T01:12:23;9.93;;;5.45;;
21270;SDS011;10795;50.796;3.860;2024-03-17T01:14:48;9.10;;;5.20;;
21270;SDS011;10795;50.796;3.860;2024-03-17T01:17:17;8.57;;;5.18;;
21270;SDS011;10795;50.796;3.860;2024-03-17T01:19:45;9.43;;;4.93;;
21270;SDS011;10795;50.796;3.860;2024-03-17T01:22:15;7.53;;;5.60;;
21270;SDS011;10795;50.796;3.860;2024-03-17T01:24:42;8.73;;;5.65;;
21270;SDS011;10795;50.796;3.860;2024-03-17T01:27:11;12.70;;;5.80;;
21270;SDS011;10795;50.796;3.860;2024-03-17T01:29:44;10.30;;;6.15;;
21270;SDS011;10795;50.796;3.860;2024-03-17T01:32:17;7.38;;;5.25;;
21270;SDS011;10795;50.796;3.860;2024-03-17T01:34:44;9.10;;;6.03;;
21270;SDS011;10795;50.796;3.860;2024-03-17T01:37:11;9.98;;;5.88;;
21270;SDS011;10795;50.796;3.860;2024-03-17T01:39:37;9.63;;;5.82;;
21270;SDS011;10795;50.796;3.860;2024-03-17T01:42:02;7.70;;;5.70;;
21270;SDS011;10795;50.796;3.860;2024-03-17T01:44:32;8.60;;;5.88;;
21270;SDS011;10795;50.796;3.860;2024-03-17T01:46:58;9.13;;;6.32;;
21270;SDS011;10795;50.796;3.860;2024-03-17T01:49:28;10.05;;;6.40;;
21270;SDS011;10795;50.796;3.860;2024-03-17T01:51:59;9.30;;;6.38;;
21270;SDS011;10795;50.796;3.860;2024-03-17T01:54:25;11.82;;;6.35;;
21270;SDS011;10795;50.796;3.860;2024-03-17T01:56:53;10.32;;;6.70;;
21270;SDS011;10795;50.796;3.860;2024-03-17T01:59:19;10.05;;;6.28;;
21270;SDS011;10795;50.796;3.860;2024-03-17T02:01:45;8.07;;;5.00;;
21270;SDS011;10795;50.796;3.860;2024-03-17T02:04:13;5.05;;;3.75;;
21270;SDS011;10795;50.796;3.860;2024-03-17T02:06:39;9.55;;;6.00;;
21270;SDS011;10795;50.796;3.860;2024-03-17T02:09:06;12.55;;;6.68;;
21270;SDS011;10795;50.796;3.860;2024-03-17T02:11:35;8.77;;;5.88;;
21270;SDS011;10795;50.796;3.860;2024-03-17T02:14:03;9.80;;;5.68;;
21270;SDS011;10795;50.796;3.860;2024-03-17T02:16:32;10.20;;;6.38;;
21270;SDS011;10795;50.796;3.860;2024-03-17T02:18:58;7.88;;;5.60;;
21270;SDS011;10795;50.796;3.860;2024-03-17T02:21:25;7.82;;;5.32;;
21270;SDS011;10795;50.796;3.860;2024-03-17T02:23:52;9.77;;;6.10;;
21270;SDS011;10795;50.796;3.860;2024-03-17T02:26:26;7.68;;;6.03;;
21270;SDS011;10795;50.796;3.860;2024-03-17T02:28:52;10.85;;;6.30;;
21270;SDS011;10795;50.796;3.860;2024-03-17T02:31:18;9.75;;;5.50;;
21270;SDS011;10795;50.796;3.860;2024-03-17T02:33:47;9.95;;;5.78;;
21270;SDS011;10795;50.796;3.860;2024-03-17T02:36:17;9.77;;;5.63;;
21270;SDS011;10795;50.796;3.860;2024-03-17T02:38:43;8.13;;;5.50;;
21270;SDS011;10795;50.796;3.860;2024-03-17T02:41:27;7.88;;;5.38;;
21270;SDS011;10795;50.796;3.860;2024-03-17T02:43:55;8.40;;;5.57;;
21270;SDS011;10795;50.796;3.860;2024-03-17T02:46:21;8.95;;;6.00;;
21270;SDS011;10795;50.796;3.860;2024-03-17T02:48:50;8.10;;;6.15;;
21270;SDS011;10795;50.796;3.860;2024-03-17T02:51:20;10.48;;;6.03;;
21270;SDS011;10795;50.796;3.860;2024-03-17T02:56:16;9.35;;;5.88;;
21270;SDS011;10795;50.796;3.860;2024-03-17T02:58:46;12.05;;;5.88;;
21270;SDS011;10795;50.796;3.860;2024-03-17T03:01:16;10.43;;;5.72;;
21270;SDS011;10795;50.796;3.860;2024-03-17T03:03:44;7.32;;;4.78;;
21270;SDS011;10795;50.796;3.860;2024-03-17T03:06:10;10.27;;;6.20;;
21270;SDS011;10795;50.796;3.860;2024-03-17T03:08:37;9.77;;;6.03;;
21270;SDS011;10795;50.796;3.860;2024-03-17T03:11:07;8.40;;;6.22;;
21270;SDS011;10795;50.796;3.860;2024-03-17T03:13:43;8.32;;;5.50;;
21270;SDS011;10795;50.796;3.860;2024-03-17T03:16:12;14.05;;;5.80;;
21270;SDS011;10795;50.796;3.860;2024-03-17T03:18:44;8.32;;;6.05;;
21270;SDS011;10795;50.796;3.860;2024-03-17T03:21:10;9.00;;;6.05;;
21270;SDS011;10795;50.796;3.860;2024-03-17T03:23:40;7.70;;;5.22;;
21270;SDS011;10795;50.796;3.860;2024-03-17T03:26:08;9.30;;;6.45;;
21270;SDS011;10795;50.796;3.860;2024-03-17T03:28:37;14.17;;;6.73;;
21270;SDS011;10795;50.796;3.860;2024-03-17T03:31:10;12.35;;;6.57;;
21270;SDS011;10795;50.796;3.860;2024-03-17T03:33:39;9.40;;;6.25;;
21270;SDS011;10795;50.796;3.860;2024-03-17T03:36:09;9.98;;;6.50;;
21270;SDS011;10795;50.796;3.860;2024-03-17T03:38:39;9.90;;;6.65;;
21270;SDS011;10795;50.796;3.860;2024-03-17T03:41:08;8.98;;;6.35;;
21270;SDS011;10795;50.796;3.860;2024-03-17T03:43:36;9.27;;;5.95;;
21270;SDS011;10795;50.796;3.860;2024-03-17T03:46:03;14.32;;;6.28;;
21270;SDS011;10795;50.796;3.860;2024-03-17T03:48:29;10.95;;;5.93;;
21270;SDS011;10795;50.796;3.860;2024-03-17T03:51:02;11.50;;;5.60;;
21270;SDS011;10795;50.796;3.860;2024-03-17T03:53:30;5.40;;;3.95;;
21270;SDS011;10795;50.796;3.860;2024-03-17T03:55:59;8.10;;;5.28;;
21270;SDS011;10795;50.796;3.860;2024-03-17T03:58:27;11.15;;;5.60;;
21270;SDS011;10795;50.796;3.860;2024-03-17T04:00:56;9.38;;;5.55;;
21270;SDS011;10795;50.796;3.860;2024-03-17T04:03:22;6.78;;;5.13;;
21270;SDS011;10795;50.796;3.860;2024-03-17T04:05:50;7.88;;;5.35;;
21270;SDS011;10795;50.796;3.860;2024-03-17T04:08:18;7.63;;;4.90;;
21270;SDS011;10795;50.796;3.860;2024-03-17T04:10:49;8.95;;;5.68;;
21270;SDS011;10795;50.796;3.860;2024-03-17T04:13:15;8.85;;;6.07;;
21270;SDS011;10795;50.796;3.860;2024-03-17T04:15:46;8.63;;;5.90;;
21270;SDS011;10795;50.796;3.860;2024-03-17T04:18:12;9.07;;;6.03;;
21270;SDS011;10795;50.796;3.860;2024-03-17T04:20:39;10.05;;;6.10;;
21270;SDS011;10795;50.796;3.860;2024-03-17T04:23:05;9.10;;;5.93;;
21270;SDS011;10795;50.796;3.860;2024-03-17T04:25:33;7.75;;;5.60;;
21270;SDS011;10795;50.796;3.860;2024-03-17T04:28:01;7.47;;;3.97;;
21270;SDS011;10795;50.796;3.860;2024-03-17T04:30:30;8.52;;;5.45;;
21270;SDS011;10795;50.796;3.860;2024-03-17T04:32:56;9.57;;;5.70;;
21270;SDS011;10795;50.796;3.860;2024-03-17T04:35:22;8.05;;;4.60;;
21270;SDS011;10795;50.796;3.860;2024-03-17T04:37:48;9.57;;;6.43;;
21270;SDS011;10795;50.796;3.860;2024-03-17T04:40:13;7.85;;;5.35;;
21270;SDS011;10795;50.796;3.860;2024-03-17T04:42:39;7.95;;;5.25;;
21270;SDS011;10795;50.796;3.860;2024-03-17T04:45:07;8.38;;;4.25;;
21270;SDS011;10795;50.796;3.860;2024-03-17T04:47:38;10.90;;;6.30;;
21270;SDS011;10795;50.796;3.860;2024-03-17T04:50:06;14.68;;;6.50;;
21270;SDS011;10795;50.796;3.860;2024-03-17T04:52:34;13.50;;;7.28;;
21270;SDS011;10795;50.796;3.860;2024-03-17T04:55:00;10.10;;;6.18;;
21270;SDS011;10795;50.796;3.860;2024-03-17T04:57:26;15.18;;;7.35;;
21270;SDS011;10795;50.796;3.860;2024-03-17T04:59:54;11.98;;;5.60;;
21270;SDS011;10795;50.796;3.860;2024-03-17T05:02:22;11.88;;;6.88;;
21270;SDS011;10795;50.796;3.860;2024-03-17T05:04:51;14.95;;;7.07;;
21270;SDS011;10795;50.796;3.860;2024-03-17T05:07:16;19.88;;;7.97;;
21270;SDS011;10795;50.796;3.860;2024-03-17T05:09:43;9.35;;;5.22;;
21270;SDS011;10795;50.796;3.860;2024-03-17T05:12:09;18.52;;;8.00;;
21270;SDS011;10795;50.796;3.860;2024-03-17T05:14:37;14.98;;;7.53;;
21270;SDS011;10795;50.796;3.860;2024-03-17T05:17:03;16.13;;;7.75;;
21270;SDS011;10795;50.796;3.860;2024-03-17T05:19:33;15.55;;;7.80;;
21270;SDS011;10795;50.796;3.860;2024-03-17T05:22:01;18.58;;;8.02;;
21270;SDS011;10795;50.796;3.860;2024-03-17T05:24:27;15.43;;;6.85;;
21270;SDS011;10795;50.796;3.860;2024-03-17T05:26:53;19.25;;;8.13;;
21270;SDS011;10795;50.796;3.860;2024-03-17T05:29:19;22.05;;;8.43;;
21270;SDS011;10795;50.796;3.860;2024-03-17T05:31:48;16.27;;;7.30;;
21270;SDS011;10795;50.796;3.860;2024-03-17T05:34:17;19.80;;;8.75;;
21270;SDS011;10795;50.796;3.860;2024-03-17T05:36:42;17.15;;;7.25;;
21270;SDS011;10795;50.796;3.860;2024-03-17T05:39:11;24.00;;;8.52;;
21270;SDS011;10795;50.796;3.860;2024-03-17T05:41:39;18.52;;;8.05;;
21270;SDS011;10795;50.796;3.860;2024-03-17T05:44:09;23.08;;;9.27;;
21270;SDS011;10795;50.796;3.860;2024-03-17T05:46:37;17.73;;;8.07;;
21270;SDS011;10795;50.796;3.860;2024-03-17T05:49:06;20.70;;;8.77;;
21270;SDS011;10795;50.796;3.860;2024-03-17T05:51:31;16.60;;;7.40;;
21270;SDS011;10795;50.796;3.860;2024-03-17T05:53:57;20.83;;;8.43;;
21270;SDS011;10795;50.796;3.860;2024-03-17T05:56:23;21.05;;;8.20;;
21270;SDS011;10795;50.796;3.860;2024-03-17T05:58:49;21.88;;;8.75;;
21270;SDS011;10795;50.796;3.860;2024-03-17T06:01:17;20.80;;;8.30;;
21270;SDS011;10795;50.796;3.860;2024-03-17T06:03:44;22.80;;;8.95;;
21270;SDS011;10795;50.796;3.860;2024-03-17T06:06:10;18.38;;;8.15;;
21270;SDS011;10795;50.796;3.860;2024-03-17T06:08:37;19.05;;;8.68;;
21270;SDS011;10795;50.796;3.860;2024-03-17T06:11:05;17.42;;;8.02;;
21270;SDS011;10795;50.796;3.860;2024-03-17T06:13:36;18.23;;;7.72;;
21270;SDS011;10795;50.796;3.860;2024-03-17T06:16:02;18.05;;;7.65;;
21270;SDS011;10795;50.796;3.860;2024-03-17T06:18:33;15.23;;;7.25;;
21270;SDS011;10795;50.796;3.860;2024-03-17T06:21:04;19.63;;;7.32;;
21270;SDS011;10795;50.796;3.860;2024-03-17T06:23:31;14.63;;;7.30;;
21270;SDS011;10795;50.796;3.860;2024-03-17T06:25:59;18.80;;;7.35;;
21270;SDS011;10795;50.796;3.860;2024-03-17T06:28:27;14.23;;;7.03;;
21270;SDS011;10795;50.796;3.860;2024-03-17T06:30:57;18.73;;;7.45;;
21270;SDS011;10795;50.796;3.860;2024-03-17T06:33:29;17.33;;;7.60;;
21270;SDS011;10795;50.796;3.860;2024-03-17T06:35:57;18.55;;;7.25;;
21270;SDS011;10795;50.796;3.860;2024-03-17T06:38:26;10.88;;;6.20;;
21270;SDS011;10795;50.796;3.860;2024-03-17T06:40:56;9.63;;;4.88;;
21270;SDS011;10795;50.796;3.860;2024-03-17T06:43:22;16.85;;;7.85;;
21270;SDS011;10795;50.796;3.860;2024-03-17T06:45:53;16.75;;;7.75;;
21270;SDS011;10795;50.796;3.860;2024-03-17T06:48:23;16.70;;;7.13;;
21270;SDS011;10795;50.796;3.860;2024-03-17T06:50:52;17.08;;;8.00;;
21270;SDS011;10795;50.796;3.860;2024-03-17T06:53:22;14.57;;;6.88;;
21270;SDS011;10795;50.796;3.860;2024-03-17T06:55:58;16.05;;;7.03;;
21270;SDS011;10795;50.796;3.860;2024-03-17T06:58:25;18.45;;;7.15;;
21270;SDS011;10795;50.796;3.860;2024-03-17T07:00:53;15.30;;;6.55;;
21270;SDS011;10795;50.796;3.860;2024-03-17T07:03:28;16.17;;;6.78;;
21270;SDS011;10795;50.796;3.860;2024-03-17T07:06:00;14.27;;;6.55;;
21270;SDS011;10795;50.796;3.860;2024-03-17T07:08:30;13.43;;;6.40;;
21270;SDS011;10795;50.796;3.860;2024-03-17T07:11:03;11.95;;;6.70;;
21270;SDS011;10795;50.796;3.860;2024-03-17T07:13:33;11.00;;;5.97;;
21270;SDS011;10795;50.796;3.860;2024-03-17T07:16:05;14.65;;;6.65;;
21270;SDS011;10795;50.796;3.860;2024-03-17T07:18:37;11.82;;;6.30;;
21270;SDS011;10795;50.796;3.860;2024-03-17T07:21:03;10.90;;;4.95;;
21270;SDS011;10795;50.796;3.860;2024-03-17T07:23:30;19.92;;;7.40;;
21270;SDS011;10795;50.796;3.860;2024-03-17T07:25:57;13.90;;;6.45;;
21270;SDS011;10795;50.796;3.860;2024-03-17T07:28:24;17.80;;;6.72;;
21270;SDS011;10795;50.796;3.860;2024-03-17T07:30:54;10.98;;;5.97;;
21270;SDS011;10795;50.796;3.860;2024-03-17T07:33:21;8.18;;;5.32;;
21270;SDS011;10795;50.796;3.860;2024-03-17T07:35:53;11.73;;;5.55;;
21270;SDS011;10795;50.796;3.860;2024-03-17T07:38:22;8.02;;;4.40;;
21270;SDS011;10795;50.796;3.860;2024-03-17T07:43:34;7.80;;;3.40;;
21270;SDS011;10795;50.796;3.860;2024-03-17T07:48:27;8.82;;;5.00;;
21270;SDS011;10795;50.796;3.860;2024-03-17T07:50:59;10.27;;;4.65;;
21270;SDS011;10795;50.796;3.860;2024-03-17T07:53:31;5.35;;;4.53;;
21270;SDS011;10795;50.796;3.860;2024-03-17T07:56:02;7.32;;;4.70;;
21270;SDS011;10795;50.796;3.860;2024-03-17T07:58:29;7.38;;;4.07;;
21270;SDS011;10795;50.796;3.860;2024-03-17T08:01:04;9.25;;;5.40;;
21270;SDS011;10795;50.796;3.860;2024-03-17T08:03:32;7.55;;;5.50;;
21270;SDS011;10795;50.796;3.860;2024-03-17T08:05:59;11.18;;;4.90;;
21270;SDS011;10795;50.796;3.860;2024-03-17T08:08:26;5.95;;;3.65;;
21270;SDS011;10795;50.796;3.860;2024-03-17T08:10:52;8.98;;;4.85;;
21270;SDS011;10795;50.796;3.860;2024-03-17T08:13:21;9.00;;;5.30;;
21270;SDS011;10795;50.796;3.860;2024-03-17T08:15:55;10.15;;;5.47;;
21270;SDS011;10795;50.796;3.860;2024-03-17T08:18:22;8.45;;;5.45;;
21270;SDS011;10795;50.796;3.860;2024-03-17T08:20:48;6.75;;;4.85;;
21270;SDS011;10795;50.796;3.860;2024-03-17T08:23:16;9.82;;;5.63;;
21270;SDS011;10795;50.796;3.860;2024-03-17T08:25:42;8.40;;;5.32;;
21270;SDS011;10795;50.796;3.860;2024-03-17T08:28:16;11.60;;;6.00;;
21270;SDS011;10795;50.796;3.860;2024-03-17T08:30:56;7.75;;;5.85;;
21270;SDS011;10795;50.796;3.860;2024-03-17T08:33:23;7.15;;;4.60;;
21270;SDS011;10795;50.796;3.860;2024-03-17T08:35:55;11.37;;;5.00;;
21270;SDS011;10795;50.796;3.860;2024-03-17T08:38:22;7.35;;;3.65;;
21270;SDS011;10795;50.796;3.860;2024-03-17T08:40:52;6.80;;;3.42;;
21270;SDS011;10795;50.796;3.860;2024-03-17T08:43:23;13.52;;;5.90;;
21270;SDS011;10795;50.796;3.860;2024-03-17T08:46:25;5.72;;;3.85;;
21270;SDS011;10795;50.796;3.860;2024-03-17T08:48:46;9.52;;;5.32;;
21270;SDS011;10795;50.796;3.860;2024-03-17T08:51:13;10.45;;;5.43;;
21270;SDS011;10795;50.796;3.860;2024-03-17T08:53:41;12.07;;;6.22;;
21270;SDS011;10795;50.796;3.860;2024-03-17T08:56:10;11.05;;;6.10;;
21270;SDS011;10795;50.796;3.860;2024-03-17T08:58:35;11.73;;;6.15;;
21270;SDS011;10795;50.796;3.860;2024-03-17T09:01:05;8.48;;;5.90;;
21270;SDS011;10795;50.796;3.860;2024-03-17T09:03:34;8.57;;;5.03;;
21270;SDS011;10795;50.796;3.860;2024-03-17T09:06:00;8.68;;;6.45;;
21270;SDS011;10795;50.796;3.860;2024-03-17T09:08:26;12.88;;;7.32;;
21270;SDS011;10795;50.796;3.860;2024-03-17T09:10:53;11.10;;;6.78;;
21270;SDS011;10795;50.796;3.860;2024-03-17T09:13:22;10.85;;;6.45;;
21270;SDS011;10795;50.796;3.860;2024-03-17T09:18:25;11.63;;;6.57;;
21270;SDS011;10795;50.796;3.860;2024-03-17T09:23:25;11.02;;;6.60;;
21270;SDS011;10795;50.796;3.860;2024-03-17T09:26:00;11.25;;;6.88;;
21270;SDS011;10795;50.796;3.860;2024-03-17T09:28:27;10.15;;;6.53;;
21270;SDS011;10795;50.796;3.860;2024-03-17T09:30:54;13.80;;;6.95;;
21270;SDS011;10795;50.796;3.860;2024-03-17T09:33:21;10.57;;;7.30;;
21270;SDS011;10795;50.796;3.860;2024-03-17T09:36:08;12.70;;;6.80;;
21270;SDS011;10795;50.796;3.860;2024-03-17T09:38:39;14.77;;;6.63;;
21270;SDS011;10795;50.796;3.860;2024-03-17T09:41:06;9.07;;;6.25;;
21270;SDS011;10795;50.796;3.860;2024-03-17T09:43:33;8.57;;;6.63;;
21270;SDS011;10795;50.796;3.860;2024-03-17T09:46:03;10.90;;;6.20;;
21270;SDS011;10795;50.796;3.860;2024-03-17T09:48:30;13.52;;;6.65;;
21270;SDS011;10795;50.796;3.860;2024-03-17T09:50:57;11.57;;;6.40;;
21270;SDS011;10795;50.796;3.860;2024-03-17T09:53:30;10.68;;;6.25;;
21270;SDS011;10795;50.796;3.860;2024-03-17T09:58:36;8.15;;;5.78;;
21270;SDS011;10795;50.796;3.860;2024-03-17T10:01:02;10.73;;;5.60;;
21270;SDS011;10795;50.796;3.860;2024-03-17T10:03:41;10.20;;;6.50;;
21270;SDS011;10795;50.796;3.860;2024-03-17T10:06:13;10.90;;;5.65;;
21270;SDS011;10795;50.796;3.860;2024-03-17T10:08:43;9.60;;;5.63;;
21270;SDS011;10795;50.796;3.860;2024-03-17T10:11:09;4.97;;;4.22;;
21270;SDS011;10795;50.796;3.860;2024-03-17T10:13:36;15.32;;;5.72;;
21270;SDS011;10795;50.796;3.860;2024-03-17T10:16:03;11.05;;;5.80;;
21270;SDS011;10795;50.796;3.860;2024-03-17T10:18:31;11.95;;;5.75;;
21270;SDS011;10795;50.796;3.860;2024-03-17T10:20:57;9.38;;;5.05;;
21270;SDS011;10795;50.796;3.860;2024-03-17T10:23:24;11.65;;;5.53;;
21270;SDS011;10795;50.796;3.860;2024-03-17T10:25:53;9.38;;;5.05;;
21270;SDS011;10795;50.796;3.860;2024-03-17T10:28:19;8.77;;;4.95;;
21270;SDS011;10795;50.796;3.860;2024-03-17T10:30:58;6.68;;;4.72;;
21270;SDS011;10795;50.796;3.860;2024-03-17T10:33:25;10.73;;;5.40;;
21270;SDS011;10795;50.796;3.860;2024-03-17T10:35:58;8.55;;;5.00;;
21270;SDS011;10795;50.796;3.860;2024-03-17T10:38:29;8.68;;;4.68;;
21270;SDS011;10795;50.796;3.860;2024-03-17T10:40:55;6.57;;;4.50;;
21270;SDS011;10795;50.796;3.860;2024-03-17T10:43:27;9.70;;;4.80;;
21270;SDS011;10795;50.796;3.860;2024-03-17T10:45:55;9.60;;;4.90;;
21270;SDS011;10795;50.796;3.860;2024-03-17T10:48:24;11.80;;;5.45;;
21270;SDS011;10795;50.796;3.860;2024-03-17T10:50:57;5.25;;;4.20;;
21270;SDS011;10795;50.796;3.860;2024-03-17T10:53:28;8.75;;;4.03;;
21270;SDS011;10795;50.796;3.860;2024-03-17T10:56:04;11.85;;;4.22;;
21270;SDS011;10795;50.796;3.860;2024-03-17T11:01:11;11.98;;;3.83;;
21270;SDS011;10795;50.796;3.860;2024-03-17T11:03:41;5.60;;;3.90;;
21270;SDS011;10795;50.796;3.860;2024-03-17T11:06:10;8.45;;;3.70;;
21270;SDS011;10795;50.796;3.860;2024-03-17T11:08:36;11.68;;;3.67;;
21270;SDS011;10795;50.796;3.860;2024-03-17T11:11:05;5.68;;;3.30;;
21270;SDS011;10795;50.796;3.860;2024-03-17T11:13:32;5.68;;;3.30;;
21270;SDS011;10795;50.796;3.860;2024-03-17T11:16:01;9.52;;;3.28;;
21270;SDS011;10795;50.796;3.860;2024-03-17T11:18:36;5.82;;;3.05;;
21270;SDS011;10795;50.796;3.860;2024-03-17T11:21:07;4.50;;;2.53;;
21270;SDS011;10795;50.796;3.860;2024-03-17T11:24:00;4.10;;;2.75;;
21270;SDS011;10795;50.796;3.860;2024-03-17T11:26:27;6.63;;;2.47;;
21270;SDS011;10795;50.796;3.860;2024-03-17T11:28:57;6.82;;;2.38;;
21270;SDS011;10795;50.796;3.860;2024-03-17T11:34:03;10.07;;;3.28;;
21270;SDS011;10795;50.796;3.860;2024-03-17T11:39:04;4.28;;;2.22;;
21270;SDS011;10795;50.796;3.860;2024-03-17T11:41:51;10.20;;;2.70;;
21270;SDS011;10795;50.796;3.860;2024-03-17T11:46:58;5.43;;;2.42;;
21270;SDS011;10795;50.796;3.860;2024-03-17T11:49:33;5.67;;;2.03;;
21270;SDS011;10795;50.796;3.860;2024-03-17T11:52:04;8.57;;;2.53;;
21270;SDS011;10795;50.796;3.860;2024-03-17T11:54:43;3.80;;;2.00;;
21270;SDS011;10795;50.796;3.860;2024-03-17T11:57:11;4.75;;;2.38;;
21270;SDS011;10795;50.796;3.860;2024-03-17T11:59:40;4.50;;;2.00;;
21270;SDS011;10795;50.796;3.860;2024-03-17T12:02:26;3.83;;;2.55;;
21270;SDS011;10795;50.796;3.860;2024-03-17T12:04:58;4.65;;;2.60;;
21270;SDS011;10795;50.796;3.860;2024-03-17T12:07:28;5.93;;;2.17;;
21270;SDS011;10795;50.796;3.860;2024-03-17T12:09:55;3.75;;;1.92;;
21270;SDS011;10795;50.796;3.860;2024-03-17T12:12:23;4.47;;;2.00;;
21270;SDS011;10795;50.796;3.860;2024-03-17T12:15:02;6.95;;;2.70;;
21270;SDS011;10795;50.796;3.860;2024-03-17T12:17:30;5.38;;;2.10;;
21270;SDS011;10795;50.796;3.860;2024-03-17T12:19:56;9.38;;;2.17;;
21270;SDS011;10795;50.796;3.860;2024-03-17T12:22:23;3.83;;;1.90;;
21270;SDS011;10795;50.796;3.860;2024-03-17T12:24:54;7.70;;;2.08;;
21270;SDS011;10795;50.796;3.860;2024-03-17T12:27:23;5.05;;;1.60;;
21270;SDS011;10795;50.796;3.860;2024-03-17T12:29:51;5.30;;;1.77;;
21270;SDS011;10795;50.796;3.860;2024-03-17T12:34:50;6.18;;;1.67;;
21270;SDS011;10795;50.796;3.860;2024-03-17T12:37:24;5.53;;;1.55;;
21270;SDS011;10795;50.796;3.860;2024-03-17T12:39:58;5.43;;;1.77;;
21270;SDS011;10795;50.796;3.860;2024-03-17T12:42:28;7.65;;;1.60;;
21270;SDS011;10795;50.796;3.860;2024-03-17T12:44:58;5.40;;;1.38;;
21270;SDS011;10795;50.796;3.860;2024-03-17T12:47:29;3.38;;;1.60;;
21270;SDS011;10795;50.796;3.860;2024-03-17T12:49:59;3.38;;;1.55;;
21270;SDS011;10795;50.796;3.860;2024-03-17T12:52:29;6.57;;;1.60;;
21270;SDS011;10795;50.796;3.860;2024-03-17T12:54:59;6.07;;;1.30;;
21270;SDS011;10795;50.796;3.860;2024-03-17T12:57:44;4.57;;;1.60;;
21270;SDS011;10795;50.796;3.860;2024-03-17T13:00:29;3.53;;;1.38;;
21270;SDS011;10795;50.796;3.860;2024-03-17T13:02:59;3.05;;;1.35;;
21270;SDS011;10795;50.796;3.860;2024-03-17T13:05:26;4.63;;;1.45;;
21270;SDS011;10795;50.796;3.860;2024-03-17T13:07:54;4.05;;;1.38;;
21270;SDS011;10795;50.796;3.860;2024-03-17T13:10:22;5.55;;;1.30;;
21270;SDS011;10795;50.796;3.860;2024-03-17T13:15:24;3.35;;;1.10;;
21270;SDS011;10795;50.796;3.860;2024-03-17T13:17:52;5.45;;;1.30;;
21270;SDS011;10795;50.796;3.860;2024-03-17T13:20:20;5.43;;;1.60;;
21270;SDS011;10795;50.796;3.860;2024-03-17T13:22:46;4.63;;;1.35;;
21270;SDS011;10795;50.796;3.860;2024-03-17T13:25:16;7.25;;;1.40;;
21270;SDS011;10795;50.796;3.860;2024-03-17T13:27:45;5.70;;;1.15;;
21270;SDS011;10795;50.796;3.860;2024-03-17T13:30:14;7.00;;;1.10;;
21270;SDS011;10795;50.796;3.860;2024-03-17T13:32:40;5.13;;;1.20;;
21270;SDS011;10795;50.796;3.860;2024-03-17T13:35:17;4.68;;;1.00;;
21270;SDS011;10795;50.796;3.860;2024-03-17T13:37:48;3.60;;;1.10;;
21270;SDS011;10795;50.796;3.860;2024-03-17T13:40:19;3.75;;;1.10;;
21270;SDS011;10795;50.796;3.860;2024-03-17T13:42:46;3.17;;;0.80;;
21270;SDS011;10795;50.796;3.860;2024-03-17T13:45:13;4.85;;;1.02;;
21270;SDS011;10795;50.796;3.860;2024-03-17T13:47:39;9.93;;;2.53;;
21270;SDS011;10795;50.796;3.860;2024-03-17T13:50:08;5.53;;;1.60;;
21270;SDS011;10795;50.796;3.860;2024-03-17T13:52:41;6.90;;;1.23;;
21270;SDS011;10795;50.796;3.860;2024-03-17T13:57:43;6.20;;;1.45;;
21270;SDS011;10795;50.796;3.860;2024-03-17T14:00:13;6.57;;;1.25;;
21270;SDS011;10795;50.796;3.860;2024-03-17T14:02:45;5.80;;;1.42;;
21270;SDS011;10795;50.796;3.860;2024-03-17T14:05:12;4.30;;;1.50;;
21270;SDS011;10795;50.796;3.860;2024-03-17T14:07:39;7.68;;;1.30;;
21270;SDS011;10795;50.796;3.860;2024-03-17T14:10:06;4.65;;;1.30;;
21270;SDS011;10795;50.796;3.860;2024-03-17T14:12:36;6.93;;;1.48;;
21270;SDS011;10795;50.796;3.860;2024-03-17T14:15:05;3.45;;;1.50;;
21270;SDS011;10795;50.796;3.860;2024-03-17T14:17:41;4.22;;;1.50;;
21270;SDS011;10795;50.796;3.860;2024-03-17T14:20:12;6.68;;;1.30;;
21270;SDS011;10795;50.796;3.860;2024-03-17T14:22:43;3.97;;;1.10;;
21270;SDS011;10795;50.796;3.860;2024-03-17T14:25:14;4.22;;;1.33;;
21270;SDS011;10795;50.796;3.860;2024-03-17T14:27:44;7.43;;;1.40;;
21270;SDS011;10795;50.796;3.860;2024-03-17T14:30:10;5.15;;;1.30;;
21270;SDS011;10795;50.796;3.860;2024-03-17T14:32:42;4.25;;;1.10;;
21270;SDS011;10795;50.796;3.860;2024-03-17T14:35:16;6.00;;;1.52;;
21270;SDS011;10795;50.796;3.860;2024-03-17T14:37:42;8.05;;;1.52;;
21270;SDS011;10795;50.796;3.860;2024-03-17T14:40:15;5.18;;;1.15;;
21270;SDS011;10795;50.796;3.860;2024-03-17T14:42:53;2.45;;;1.25;;
21270;SDS011;10795;50.796;3.860;2024-03-17T14:45:21;5.05;;;1.77;;
21270;SDS011;10795;50.796;3.860;2024-03-17T14:47:49;6.38;;;1.50;;
21270;SDS011;10795;50.796;3.860;2024-03-17T14:50:17;8.10;;;1.70;;
21270;SDS011;10795;50.796;3.860;2024-03-17T14:52:45;8.55;;;1.90;;
21270;SDS011;10795;50.796;3.860;2024-03-17T14:55:12;5.68;;;1.50;;
21270;SDS011;10795;50.796;3.860;2024-03-17T14:57:46;6.18;;;1.60;;
21270;SDS011;10795;50.796;3.860;2024-03-17T15:00:17;8.85;;;1.88;;
21270;SDS011;10795;50.796;3.860;2024-03-17T15:02:47;4.55;;;1.38;;
21270;SDS011;10795;50.796;3.860;2024-03-17T15:05:19;6.88;;;1.75;;
21270;SDS011;10795;50.796;3.860;2024-03-17T15:07:49;5.07;;;1.40;;
21270;SDS011;10795;50.796;3.860;2024-03-17T15:10:15;6.05;;;1.67;;
21270;SDS011;10795;50.796;3.860;2024-03-17T15:12:46;4.63;;;1.75;;
21270;SDS011;10795;50.796;3.860;2024-03-17T15:15:16;5.03;;;1.60;;
21270;SDS011;10795;50.796;3.860;2024-03-17T15:17:42;6.10;;;1.70;;
21270;SDS011;10795;50.796;3.860;2024-03-17T15:20:11;2.63;;;1.42;;
21270;SDS011;10795;50.796;3.860;2024-03-17T15:22:44;8.18;;;1.45;;
21270;SDS011;10795;50.796;3.860;2024-03-17T15:25:20;5.40;;;1.70;;
21270;SDS011;10795;50.796;3.860;2024-03-17T15:27:50;2.72;;;1.40;;